createdAt,value
2023-02-03T00:01:59.517Z,2.60
2023-02-03T00:04:27.110Z,2.60
2023-02-03T00:06:54.605Z,2.40
2023-02-03T00:09:22.125Z,2.60
2023-02-03T00:11:49.541Z,2.50
2023-02-03T00:14:17.523Z,2.40
2023-02-03T00:16:44.889Z,2.40
2023-02-03T00:19:12.349Z,2.40
2023-02-03T00:21:40.174Z,2.60
2023-02-03T00:24:07.872Z,2.40
2023-02-03T00:26:35.223Z,2.50
2023-02-03T00:29:02.621Z,2.60
2023-02-03T00:31:30.133Z,2.50
2023-02-03T00:33:58.615Z,2.50
2023-02-03T00:36:26.997Z,2.50
2023-02-03T00:38:55.039Z,2.60
2023-02-03T00:41:22.624Z,2.50
2023-02-03T00:43:50.231Z,2.80
2023-02-03T00:46:17.628Z,2.80
2023-02-03T00:48:45.045Z,2.80
2023-02-03T00:51:13.699Z,2.80
2023-02-03T00:53:41.226Z,2.90
2023-02-03T00:56:12.898Z,2.80
2023-02-03T00:58:41.070Z,2.80
2023-02-03T01:01:08.895Z,2.70
2023-02-03T01:03:36.418Z,2.80
2023-02-03T01:06:19.736Z,2.90
2023-02-03T01:08:48.983Z,2.90
2023-02-03T01:11:21.852Z,2.80
2023-02-03T01:13:50.451Z,2.80
2023-02-03T01:16:20.061Z,2.70
2023-02-03T01:18:48.335Z,2.60
2023-02-03T01:21:22.353Z,2.80
2023-02-03T01:23:50.495Z,2.60
2023-02-03T01:26:20.404Z,2.60
2023-02-03T01:28:58.999Z,2.80
2023-02-03T01:31:32.863Z,2.80
2023-02-03T01:34:00.355Z,2.50
2023-02-03T01:36:30.596Z,2.60
2023-02-03T01:38:58.154Z,2.70
2023-02-03T01:41:29.171Z,2.50
2023-02-03T01:43:58.725Z,2.50
2023-02-03T01:46:51.255Z,2.40
2023-02-03T01:49:33.070Z,2.50
2023-02-03T01:52:01.049Z,2.60
2023-02-03T01:54:33.908Z,2.70
2023-02-03T01:57:11.820Z,2.50
2023-02-03T01:59:40.029Z,2.70
2023-02-03T02:02:08.339Z,2.30
2023-02-03T02:05:13.601Z,2.70
2023-02-03T02:07:43.638Z,2.40
2023-02-03T02:10:11.737Z,2.70
2023-02-03T02:12:39.382Z,2.40
2023-02-03T02:15:07.791Z,2.40
2023-02-03T02:18:19.207Z,2.40
2023-02-03T02:21:24.468Z,2.50
2023-02-03T02:24:15.206Z,2.60
2023-02-03T02:27:23.514Z,2.30
2023-02-03T02:30:18.234Z,2.40
2023-02-03T02:33:10.625Z,2.70
2023-02-03T02:36:10.731Z,2.50
2023-02-03T02:39:06.900Z,2.40
2023-02-03T02:41:46.479Z,2.70
2023-02-03T02:44:29.058Z,2.70
2023-02-03T02:47:05.430Z,2.30
2023-02-03T02:49:41.896Z,2.40
2023-02-03T02:52:11.491Z,2.70
2023-02-03T02:54:42.434Z,2.60
2023-02-03T02:57:13.013Z,2.60
2023-02-03T02:59:40.487Z,2.80
2023-02-03T03:02:11.086Z,2.80
2023-02-03T03:04:42.248Z,2.80
2023-02-03T03:07:16.776Z,2.50
2023-02-03T03:09:52.690Z,2.40
2023-02-03T03:12:25.329Z,2.60
2023-02-03T03:14:58.399Z,2.80
2023-02-03T03:17:31.436Z,2.70
2023-02-03T03:20:03.551Z,2.90
2023-02-03T03:22:37.373Z,2.40
2023-02-03T03:25:13.232Z,2.90
2023-02-03T03:27:48.531Z,2.90
2023-02-03T03:30:22.420Z,3.10
2023-02-03T03:32:50.810Z,3.20
2023-02-03T03:35:18.590Z,3.50
2023-02-03T03:38:08.931Z,3.30
2023-02-03T03:40:43.952Z,2.90
2023-02-03T03:43:17.721Z,3.50
2023-02-03T03:45:49.513Z,3.50
2023-02-03T03:48:21.899Z,3.40
2023-02-03T03:51:15.350Z,3.40
2023-02-03T03:53:45.862Z,3.40
2023-02-03T03:56:18.192Z,3.40
2023-02-03T03:58:48.956Z,3.50
2023-02-03T04:01:17.006Z,3.60
2023-02-03T04:03:52.779Z,3.60
2023-02-03T04:06:20.183Z,3.90
2023-02-03T04:08:47.706Z,4.10
2023-02-03T04:11:35.111Z,4.40
2023-02-03T04:14:02.582Z,4.60
2023-02-03T04:16:30.576Z,4.80
2023-02-03T04:18:57.976Z,5.00
2023-02-03T04:21:25.653Z,5.00
2023-02-03T04:23:53.289Z,5.10
2023-02-03T04:26:20.620Z,5.20
2023-02-03T04:28:48.060Z,5.30
2023-02-03T04:31:15.689Z,5.50
2023-02-03T04:33:43.327Z,5.30
2023-02-03T04:36:10.753Z,5.40
2023-02-03T04:38:38.178Z,5.40
2023-02-03T04:41:05.831Z,5.50
2023-02-03T04:43:33.385Z,5.50
2023-02-03T04:46:02.095Z,5.60
2023-02-03T04:48:29.694Z,5.60
2023-02-03T04:51:02.802Z,5.70
2023-02-03T04:53:31.073Z,5.70
2023-02-03T04:55:59.044Z,5.70
2023-02-03T04:58:27.162Z,5.70
2023-02-03T05:00:55.441Z,5.70
2023-02-03T05:03:25.048Z,5.70
2023-02-03T05:05:57.381Z,5.70
2023-02-03T05:08:25.275Z,5.80
2023-02-03T05:10:52.719Z,5.80
2023-02-03T05:13:20.293Z,5.80
2023-02-03T05:15:47.750Z,5.90
2023-02-03T05:18:15.093Z,6.00
2023-02-03T05:20:42.509Z,5.90
2023-02-03T05:23:10.107Z,5.90
2023-02-03T05:25:37.598Z,6.00
2023-02-03T05:28:05.185Z,5.90
2023-02-03T05:30:32.590Z,5.90
2023-02-03T05:33:00.142Z,5.90
2023-02-03T05:35:27.633Z,6.00
2023-02-03T05:37:55.440Z,6.00
2023-02-03T05:40:41.286Z,6.10
2023-02-03T05:43:09.033Z,5.90
2023-02-03T05:45:36.650Z,6.10
2023-02-03T05:48:04.209Z,6.10
2023-02-03T05:50:33.384Z,6.10
2023-02-03T05:53:09.195Z,6.10
2023-02-03T05:55:37.761Z,6.10
2023-02-03T05:58:05.574Z,6.10
2023-02-03T06:00:32.927Z,6.10
2023-02-03T06:03:04.645Z,6.10
2023-02-03T06:05:33.810Z,6.20
2023-02-03T06:08:01.599Z,6.10
2023-02-03T06:10:29.267Z,6.10
2023-02-03T06:12:56.871Z,6.10
2023-02-03T06:15:24.263Z,6.20
2023-02-03T06:17:51.585Z,6.10
2023-02-03T06:20:20.282Z,6.20
2023-02-03T06:22:47.711Z,6.10
2023-02-03T06:25:15.410Z,6.20
2023-02-03T06:27:42.948Z,6.20
2023-02-03T06:30:11.677Z,6.20
2023-02-03T06:32:39.173Z,6.20
2023-02-03T06:35:07.490Z,6.20
2023-02-03T06:37:35.850Z,6.20
2023-02-03T06:40:04.537Z,6.40
2023-02-03T06:42:32.227Z,6.30
2023-02-03T06:44:59.753Z,6.40
2023-02-03T06:47:27.432Z,6.40
2023-02-03T06:49:54.819Z,6.40
2023-02-03T06:52:22.284Z,6.40
2023-02-03T06:54:49.658Z,6.30
2023-02-03T06:57:17.003Z,6.30
2023-02-03T06:59:44.404Z,6.30
2023-02-03T07:02:12.243Z,6.30
2023-02-03T07:04:39.678Z,6.30
2023-02-03T07:07:07.064Z,6.30
2023-02-03T07:09:34.429Z,6.30
2023-02-03T07:12:01.836Z,6.40
2023-02-03T07:14:31.125Z,6.40
2023-02-03T07:16:58.444Z,6.40
2023-02-03T07:19:25.789Z,6.40
2023-02-03T07:21:53.072Z,6.40
2023-02-03T07:24:20.486Z,6.40
2023-02-03T07:26:47.799Z,6.40
2023-02-03T07:29:15.304Z,6.50
2023-02-03T07:31:42.728Z,6.50
2023-02-03T07:34:10.342Z,6.60
2023-02-03T07:36:37.725Z,6.60
2023-02-03T07:39:05.353Z,6.60
2023-02-03T07:41:32.878Z,6.60
2023-02-03T07:44:00.219Z,6.60
2023-02-03T07:46:27.877Z,6.70
2023-02-03T07:48:55.257Z,6.70
2023-02-03T07:51:22.821Z,6.70
2023-02-03T07:53:50.231Z,6.60
2023-02-03T07:56:17.718Z,6.50
2023-02-03T07:58:45.039Z,6.40
2023-02-03T08:01:15.848Z,6.40
2023-02-03T08:03:43.611Z,6.40
2023-02-03T08:06:11.342Z,6.40
2023-02-03T08:08:38.889Z,6.30
2023-02-03T08:11:06.311Z,6.30
2023-02-03T08:13:33.988Z,6.30
2023-02-03T08:16:01.477Z,6.30
2023-02-03T08:18:30.939Z,6.30
2023-02-03T08:21:00.857Z,6.40
2023-02-03T08:23:28.256Z,6.40
2023-02-03T08:25:55.682Z,6.40
2023-02-03T08:28:22.981Z,6.40
2023-02-03T08:30:51.075Z,6.40
2023-02-03T08:33:18.504Z,6.40
2023-02-03T08:35:47.541Z,6.50
2023-02-03T08:38:15.100Z,6.50
2023-02-03T08:40:43.218Z,6.50
2023-02-03T08:43:11.319Z,6.50
2023-02-03T08:45:40.549Z,6.50
2023-02-03T08:48:08.072Z,6.50
2023-02-03T08:50:35.613Z,6.50
2023-02-03T08:53:03.067Z,6.60
2023-02-03T08:55:30.519Z,6.50
2023-02-03T08:57:57.913Z,6.50
2023-02-03T09:00:25.864Z,6.50
2023-02-03T09:02:53.432Z,6.40
2023-02-03T09:05:20.790Z,6.50
2023-02-03T09:07:48.172Z,6.50
2023-02-03T09:10:15.691Z,6.40
2023-02-03T09:12:43.127Z,6.50
2023-02-03T09:15:10.949Z,6.40
2023-02-03T09:17:38.296Z,6.40
2023-02-03T09:20:06.825Z,6.50
2023-02-03T09:22:34.137Z,6.40
2023-02-03T09:25:01.898Z,6.40
2023-02-03T09:27:29.203Z,6.40
2023-02-03T09:29:58.515Z,6.40
2023-02-03T09:32:25.899Z,6.50
2023-02-03T09:34:53.275Z,6.50
2023-02-03T09:37:20.597Z,6.50
2023-02-03T09:39:48.920Z,6.50
2023-02-03T09:42:51.111Z,6.50
2023-02-03T09:45:26.430Z,6.40
2023-02-03T09:47:57.043Z,6.40
2023-02-03T09:50:28.594Z,6.40
2023-02-03T09:52:58.241Z,6.40
2023-02-03T09:55:42.636Z,6.40
2023-02-03T09:58:15.995Z,6.40
2023-02-03T10:00:47.750Z,6.50
2023-02-03T10:03:41.909Z,6.50
2023-02-03T10:06:24.483Z,6.50
2023-02-03T10:09:34.767Z,6.60
2023-02-03T10:12:29.359Z,6.60
2023-02-03T10:15:27.222Z,6.70
2023-02-03T10:18:00.474Z,6.70
2023-02-03T10:20:43.153Z,6.70
2023-02-03T10:23:19.879Z,6.70
2023-02-03T10:25:59.187Z,6.70
2023-02-03T10:28:53.679Z,6.70
2023-02-03T10:31:24.871Z,6.80
2023-02-03T10:34:01.598Z,6.80
2023-02-03T10:36:59.394Z,6.80
2023-02-03T10:39:36.775Z,6.80
2023-02-03T10:42:06.268Z,6.80
2023-02-03T10:44:57.358Z,6.80
2023-02-03T10:47:34.936Z,6.80
2023-02-03T10:50:07.551Z,6.80
2023-02-03T10:52:36.195Z,6.80
2023-02-03T10:55:27.546Z,6.80
2023-02-03T10:57:55.479Z,6.90
2023-02-03T11:00:29.448Z,7.00
2023-02-03T11:03:04.376Z,7.10
2023-02-03T11:05:31.775Z,7.10
2023-02-03T11:07:59.172Z,7.10
2023-02-03T11:10:44.420Z,7.10
2023-02-03T11:13:26.254Z,7.10
2023-02-03T11:16:05.944Z,7.20
2023-02-03T11:18:46.972Z,7.20
2023-02-03T11:21:16.568Z,7.20
2023-02-03T11:24:06.749Z,7.20
2023-02-03T11:26:59.178Z,7.20
2023-02-03T11:29:28.523Z,7.20
2023-02-03T11:31:58.622Z,7.20
2023-02-03T11:34:32.483Z,7.20
2023-02-03T11:37:26.968Z,7.30
2023-02-03T11:40:15.466Z,7.30
2023-02-03T11:42:45.168Z,7.30
2023-02-03T11:45:36.323Z,7.30
2023-02-03T11:48:33.318Z,7.30
2023-02-03T11:51:49.074Z,7.30
2023-02-03T11:54:38.864Z,7.30
2023-02-03T11:57:16.087Z,7.20
2023-02-03T12:00:04.719Z,7.30
2023-02-03T12:03:16.198Z,7.40
2023-02-03T12:06:31.127Z,7.50
2023-02-03T12:12:22.157Z,7.70
2023-02-03T12:15:30.878Z,7.80
2023-02-03T12:18:42.458Z,7.80
2023-02-03T12:21:30.947Z,7.80
2023-02-03T12:24:12.341Z,7.70
2023-02-03T12:27:12.636Z,7.60
2023-02-03T12:29:47.665Z,7.70
2023-02-03T12:32:34.707Z,7.80
2023-02-03T12:35:39.883Z,7.70
2023-02-03T12:38:44.012Z,7.70
2023-02-03T12:41:15.897Z,7.80
2023-02-03T12:43:49.423Z,7.80
2023-02-03T12:46:26.299Z,7.80
2023-02-03T12:49:37.071Z,7.90
2023-02-03T12:52:32.272Z,7.90
2023-02-03T12:55:25.624Z,8.00
2023-02-03T12:58:03.141Z,8.00
2023-02-03T13:00:47.839Z,8.00
2023-02-03T13:03:36.870Z,7.90
2023-02-03T13:06:34.831Z,7.80
2023-02-03T13:09:38.356Z,7.70
2023-02-03T13:12:12.502Z,7.50
2023-02-03T13:14:49.060Z,6.90
2023-02-03T13:17:27.986Z,6.10
2023-02-03T13:20:15.744Z,5.90
2023-02-03T13:22:43.022Z,6.00
2023-02-03T13:25:36.716Z,6.00
2023-02-03T13:28:37.907Z,6.10
2023-02-03T13:31:44.364Z,6.30
2023-02-03T13:34:37.874Z,6.60
2023-02-03T13:37:46.382Z,6.70
2023-02-03T13:40:40.403Z,6.80
2023-02-03T13:43:23.002Z,6.90
2023-02-03T13:46:00.255Z,7.00
2023-02-03T13:48:30.675Z,7.00
2023-02-03T13:51:13.810Z,7.00
2023-02-03T13:53:43.806Z,7.10
2023-02-03T13:56:22.075Z,7.00
2023-02-03T13:59:07.229Z,7.10
2023-02-03T14:01:41.917Z,7.10
2023-02-03T14:04:49.484Z,7.10
2023-02-03T14:07:39.027Z,7.00
2023-02-03T14:10:21.423Z,7.00
2023-02-03T14:12:55.738Z,7.00
2023-02-03T14:15:32.306Z,7.00
2023-02-03T14:18:01.652Z,6.90
2023-02-03T14:20:40.207Z,6.90
2023-02-03T14:23:15.613Z,6.80
2023-02-03T14:25:49.968Z,6.80
2023-02-03T14:28:21.938Z,6.80
2023-02-03T14:31:20.178Z,6.90
2023-02-03T14:34:05.723Z,6.80
2023-02-03T14:36:39.258Z,6.80
2023-02-03T14:39:44.961Z,6.80
2023-02-03T14:42:22.811Z,6.80
2023-02-03T14:45:27.281Z,6.90
2023-02-03T14:48:06.811Z,6.80
2023-02-03T14:51:23.329Z,6.80
2023-02-03T14:54:05.633Z,6.90
2023-02-03T14:57:00.126Z,6.80
2023-02-03T14:59:36.794Z,6.70
2023-02-03T15:02:08.121Z,6.60
2023-02-03T15:04:35.520Z,6.60
2023-02-03T15:07:02.858Z,6.60
2023-02-03T15:09:45.943Z,6.60
2023-02-03T15:12:24.551Z,6.60
2023-02-03T15:14:52.594Z,6.50
2023-02-03T15:17:28.929Z,6.50
2023-02-03T15:19:56.297Z,6.70
2023-02-03T15:22:28.750Z,6.60
2023-02-03T15:25:05.378Z,6.60
2023-02-03T15:27:33.501Z,6.50
2023-02-03T15:30:16.877Z,6.40
2023-02-03T15:32:53.617Z,6.60
2023-02-03T15:35:21.508Z,6.60
2023-02-03T15:38:10.731Z,6.60
2023-02-03T15:40:53.394Z,6.60
2023-02-03T15:43:38.899Z,6.60
2023-02-03T15:46:30.809Z,6.70
2023-02-03T15:49:12.435Z,6.70
2023-02-03T15:52:20.307Z,6.70
2023-02-03T15:54:53.972Z,6.70
2023-02-03T15:57:28.220Z,6.80
2023-02-03T16:00:09.534Z,6.70
2023-02-03T16:02:45.851Z,6.60
2023-02-03T16:05:27.472Z,6.80
2023-02-03T16:07:55.460Z,6.70
2023-02-03T16:10:28.985Z,6.80
2023-02-03T16:13:25.781Z,6.80
2023-02-03T16:16:05.968Z,6.80
2023-02-03T16:18:38.116Z,6.80
2023-02-03T16:21:05.991Z,6.90
2023-02-03T16:23:33.306Z,6.80
2023-02-03T16:26:18.558Z,6.80
2023-02-03T16:29:34.853Z,6.90
2023-02-03T16:32:20.897Z,6.90
2023-02-03T16:35:06.639Z,7.00
2023-02-03T16:38:01.229Z,6.90
2023-02-03T16:40:47.129Z,7.00
2023-02-03T16:43:34.915Z,7.00
2023-02-03T16:46:20.870Z,7.00
2023-02-03T16:49:06.630Z,7.00
2023-02-03T16:51:39.740Z,7.00
2023-02-03T16:54:13.047Z,6.90
2023-02-03T16:56:41.048Z,6.80
2023-02-03T16:59:08.795Z,6.90
2023-02-03T17:01:36.436Z,6.90
2023-02-03T17:04:03.850Z,7.00
2023-02-03T17:06:32.932Z,7.10
2023-02-03T17:09:00.410Z,7.00
2023-02-03T17:11:27.759Z,7.00
2023-02-03T17:13:55.100Z,7.00
2023-02-03T17:16:24.970Z,7.10
2023-02-03T17:18:52.898Z,7.10
2023-02-03T17:21:26.501Z,7.00
2023-02-03T17:23:54.405Z,7.00
2023-02-03T17:26:21.786Z,7.00
2023-02-03T17:28:49.144Z,7.00
2023-02-03T17:31:18.774Z,7.10
2023-02-03T17:33:49.938Z,7.00
2023-02-03T17:36:19.570Z,6.90
2023-02-03T17:55:20.119Z,7.10
2023-02-03T17:57:47.661Z,7.10
2023-02-03T18:00:15.517Z,7.10
2023-02-03T18:02:43.216Z,7.10
2023-02-03T18:05:10.772Z,7.20
2023-02-03T18:07:38.205Z,7.10
2023-02-03T18:10:05.876Z,7.20
2023-02-03T18:12:33.148Z,7.20
2023-02-03T18:15:00.521Z,7.10
2023-02-03T18:17:27.878Z,7.20
2023-02-03T18:19:56.458Z,7.20
2023-02-03T18:22:24.080Z,7.10
2023-02-03T18:24:52.266Z,7.10
2023-02-03T18:27:19.643Z,7.10
2023-02-03T18:29:48.032Z,7.10
2023-02-03T18:32:16.125Z,7.10
2023-02-03T18:34:43.742Z,7.00
2023-02-03T18:37:11.966Z,7.00
2023-02-03T18:39:39.318Z,7.00
2023-02-03T18:42:07.390Z,7.00
2023-02-03T18:44:34.887Z,7.00
2023-02-03T18:47:07.033Z,6.90
2023-02-03T18:49:36.558Z,7.00
2023-02-03T18:52:05.031Z,7.00
2023-02-03T18:54:32.461Z,7.00
2023-02-03T18:56:59.984Z,7.10
2023-02-03T18:59:27.446Z,7.00
2023-02-03T19:01:54.771Z,6.90
2023-02-03T19:04:22.583Z,6.90
2023-02-03T19:06:51.383Z,6.80
2023-02-03T19:09:20.639Z,6.70
2023-02-03T19:11:48.006Z,6.60
2023-02-03T19:14:16.460Z,6.60
2023-02-03T19:16:43.905Z,6.60
2023-02-03T19:19:13.607Z,6.70
2023-02-03T19:21:41.024Z,6.70
2023-02-03T19:24:08.496Z,6.70
2023-02-03T19:26:35.826Z,6.70
2023-02-03T19:29:03.254Z,6.70
2023-02-03T19:31:30.801Z,6.70
2023-02-03T19:33:59.803Z,6.70
2023-02-03T19:36:30.922Z,6.80
2023-02-03T19:38:58.221Z,6.70
2023-02-03T19:41:26.470Z,6.80
2023-02-03T19:43:53.925Z,6.70
2023-02-03T19:46:22.236Z,6.70
2023-02-03T19:48:49.764Z,6.70
2023-02-03T19:51:17.410Z,6.70
2023-02-03T19:53:44.710Z,6.60
2023-02-03T19:56:13.171Z,6.50
2023-02-03T19:58:40.571Z,6.40
2023-02-03T20:01:07.964Z,6.30
2023-02-03T20:03:35.242Z,6.30
2023-02-03T20:06:02.587Z,6.30
2023-02-03T20:08:29.860Z,6.30
2023-02-03T20:10:57.216Z,6.20
2023-02-03T20:13:24.502Z,6.30
2023-02-03T20:15:51.809Z,6.20
2023-02-03T20:18:19.159Z,6.20
2023-02-03T20:20:55.213Z,6.10
2023-02-03T20:23:23.941Z,6.10
2023-02-03T20:25:55.524Z,6.00
2023-02-03T20:28:24.598Z,6.10
2023-02-03T20:30:54.117Z,6.00
2023-02-03T20:33:21.446Z,6.00
2023-02-03T20:35:49.133Z,5.90
2023-02-03T20:38:16.795Z,5.80
2023-02-03T20:48:18.078Z,5.50
2023-02-03T20:50:50.214Z,5.50
2023-02-03T20:53:21.869Z,5.50
2023-02-03T20:55:50.120Z,5.60
2023-02-03T20:58:23.325Z,5.60
2023-02-03T21:00:51.511Z,5.70
2023-02-03T21:03:38.612Z,5.80
2023-02-03T21:28:54.456Z,5.60
2023-02-03T21:31:31.189Z,5.60
2023-02-03T21:34:03.295Z,5.60
2023-02-03T21:36:31.420Z,5.60
2023-02-03T21:39:00.086Z,5.60
2023-02-03T21:41:33.695Z,5.50
2023-02-03T21:44:01.262Z,5.60
2023-02-03T21:46:35.704Z,5.60
2023-02-03T21:56:54.375Z,5.70
2023-02-03T21:59:26.182Z,5.60
2023-02-03T22:04:21.367Z,5.60
2023-02-03T22:06:50.932Z,5.60
2023-02-03T22:09:20.694Z,5.60
2023-02-03T22:11:48.231Z,5.60
2023-02-03T22:14:16.865Z,5.60
2023-02-03T22:16:44.660Z,5.60
2023-02-03T22:19:12.134Z,5.50
2023-02-03T22:21:39.638Z,5.40
2023-02-03T22:24:07.181Z,5.40
2023-02-03T22:26:34.450Z,5.40
2023-02-03T22:29:02.600Z,5.40
2023-02-03T22:31:29.946Z,5.30
2023-02-03T22:33:57.359Z,5.30
2023-02-03T22:36:25.829Z,5.20
2023-02-03T22:38:53.197Z,5.20
2023-02-03T22:41:21.005Z,5.20
2023-02-03T22:43:48.649Z,5.20
2023-02-03T22:46:16.042Z,5.10
2023-02-03T22:48:43.427Z,5.10
2023-02-03T22:51:10.740Z,5.10
2023-02-03T22:53:39.547Z,5.10
2023-02-03T22:56:07.152Z,5.10
2023-02-03T22:58:34.456Z,5.10
2023-02-03T23:01:01.774Z,5.00
2023-02-03T23:03:32.623Z,5.10
2023-02-03T23:06:00.244Z,5.00
2023-02-03T23:08:27.612Z,5.00
2023-02-03T23:10:55.876Z,5.00
2023-02-03T23:13:23.413Z,5.00
2023-02-03T23:15:51.173Z,5.00
2023-02-03T23:18:18.477Z,5.00
2023-02-03T23:20:45.829Z,5.00
2023-02-03T23:23:14.275Z,5.00
2023-02-03T23:25:41.576Z,5.10
2023-02-03T23:28:09.032Z,5.10
2023-02-03T23:30:36.407Z,5.00
2023-02-03T23:33:03.800Z,5.00
2023-02-03T23:35:46.427Z,5.00
2023-02-03T23:38:15.034Z,5.10
2023-02-03T23:40:43.041Z,5.00
2023-02-03T23:43:10.507Z,5.10
2023-02-03T23:45:37.805Z,5.00
2023-02-03T23:48:06.000Z,5.00
2023-02-03T23:50:33.808Z,5.00
2023-02-03T23:53:01.107Z,4.90
2023-02-03T23:55:29.122Z,4.90
2023-02-03T23:57:57.034Z,4.60
